Time;durP1;ratioP1;P1;durP2;ratioP2;P2;SDS_P1;SDS_P2;PMS_P1;PMS_P2;Temp;Humidity;BMP_temperature;BMP_pressure;BME280_temperature;BME280_humidity;BME280_pressure;Samples;Min_cycle;Max_cycle;Signal;HPM_P1;HPM_P2
2024/02/26 00:05:45;;;;;;;31.50;16.90;;;;;;;5.25;90.09;98110.22;273472;1269;23150;-84
2024/02/26 00:13:31;;;;;;;28.80;15.80;;;;;;;5.05;90.74;98108.09;272835;1272;22835;-84
2024/02/26 00:21:10;;;;;;;29.50;15.90;;;;;;;4.86;90.98;98103.45;273081;1280;22219;-83
2024/02/26 00:28:51;;;;;;;40.00;17.90;;;;;;;4.66;91.33;98104.70;272762;1276;22532;-85
2024/02/26 00:36:31;;;;;;;31.80;16.30;;;;;;;4.59;92.45;98103.79;271729;1278;22291;-81
2024/02/26 00:43:20;;;;;;;37.70;18.10;;;;;;;4.48;92.06;98105.40;272138;1273;22419;-85
2024/02/26 00:50:48;;;;;;;43.60;20.80;;;;;;;4.26;92.15;98093.32;266687;1299;545230;-84
2024/02/26 00:58:28;;;;;;;35.10;17.10;;;;;;;4.04;92.60;98087.42;271287;1281;22502;-85
2024/02/26 01:06:12;;;;;;;39.40;18.50;;;;;;;3.77;93.09;98091.14;268316;1273;22550;-83
2024/02/26 01:13:46;;;;;;;44.30;21.50;;;;;;;3.62;93.04;98085.15;271583;1274;22359;-85
2024/02/26 01:21:08;;;;;;;31.90;17.10;;;;;;;3.45;93.47;98087.82;271767;1279;22543;-84
2024/02/26 01:28:51;;;;;;;44.00;21.70;;;;;;;3.20;93.72;98096.33;271181;1283;23439;-84
2024/02/26 01:35:54;;;;;;;34.40;19.50;;;;;;;3.08;94.67;98102.67;267866;1282;24838;-83
2024/02/26 01:43:38;;;;;;;40.90;21.10;;;;;;;3.00;95.17;98100.37;266745;1289;22567;-85
2024/02/26 01:50:43;;;;;;;37.10;20.30;;;;;;;2.89;95.47;98097.20;266584;1289;22863;-86
2024/02/26 01:57:52;;;;;;;45.60;23.00;;;;;;;2.75;95.42;98098.77;270494;1283;22260;-84
2024/02/26 02:05:50;;;;;;;39.40;21.00;;;;;;;2.58;95.59;98093.75;270489;1281;22221;-84
2024/02/26 02:13:26;;;;;;;38.60;22.00;;;;;;;2.47;96.05;98088.02;271692;1274;22956;-84
2024/02/26 02:20:46;;;;;;;44.60;22.80;;;;;;;2.37;96.67;98093.52;272377;1275;23184;-87
2024/02/26 02:28:15;;;;;;;45.30;22.90;;;;;;;2.33;97.00;98095.34;272269;1276;22300;-84
2024/02/26 02:35:30;;;;;;;48.80;23.40;;;;;;;2.39;96.77;98098.98;270633;1266;22382;-91
2024/02/26 02:41:40;;;;;;;41.60;22.50;;;;;;;2.43;97.88;98103.58;271237;1278;22511;-90
2024/02/26 02:47:44;;;;;;;;;;;;;;;2.27;97.47;98105.66;271541;1275;23277;-92
2024/02/26 02:53:50;;;;;;;49.60;25.10;;;;;;;2.12;97.35;98105.60;271115;1272;22237;-90
2024/02/26 02:59:56;;;;;;;49.50;22.50;;;;;;;2.07;98.37;98101.52;272111;1270;23270;-89
2024/02/26 03:05:58;;;;;;;52.20;25.40;;;;;;;1.98;98.24;98104.64;269447;1270;22617;-90
2024/02/26 03:12:03;;;;;;;65.40;29.00;;;;;;;1.78;98.35;98112.10;270170;1271;24209;-90
2024/02/26 03:18:06;;;;;;;54.80;26.80;;;;;;;1.70;98.04;98111.19;270508;1271;22628;-91
2024/02/26 03:24:10;;;;;;;65.00;27.60;;;;;;;1.64;98.50;98101.34;272041;1270;23294;-90
2024/02/26 03:30:12;;;;;;;52.30;26.60;;;;;;;1.62;99.09;98092.27;271350;1270;22408;-91
2024/02/26 03:36:14;;;;;;;53.60;27.10;;;;;;;1.59;98.77;98090.02;271406;1271;22407;-89
2024/02/26 03:42:22;;;;;;;40.60;20.50;;;;;;;1.54;99.23;98078.84;272595;1271;22390;-91
2024/02/26 03:48:24;;;;;;;49.50;23.90;;;;;;;1.42;99.09;98075.14;272460;1265;22429;-90
2024/02/26 03:54:35;;;;;;;51.50;24.40;;;;;;;1.27;99.10;98070.27;272344;1272;22447;-90
2024/02/26 04:00:40;;;;;;;49.30;25.30;;;;;;;1.21;99.32;98068.61;272284;1270;22506;-91
2024/02/26 04:06:46;;;;;;;55.70;28.30;;;;;;;1.20;99.98;98067.33;272296;1270;23383;-91
2024/02/26 04:12:48;;;;;;;55.30;27.10;;;;;;;1.14;99.95;98057.20;270979;1270;25364;-90
2024/02/26 04:18:53;;;;;;;47.50;23.40;;;;;;;1.10;100.00;98049.84;270631;1260;23791;-90
2024/02/26 04:24:55;;;;;;;59.70;28.80;;;;;;;0.95;100.00;98047.71;270021;1265;25426;-89
2024/02/26 04:30:59;;;;;;;52.10;25.60;;;;;;;0.83;100.00;98050.01;270518;1268;22404;-90
2024/02/26 04:37:01;;;;;;;64.20;29.50;;;;;;;0.73;100.00;98055.50;272266;1270;22218;-90
2024/02/26 04:43:07;;;;;;;52.70;26.50;;;;;;;0.71;99.87;98050.07;272199;1270;23400;-89
2024/02/26 04:49:11;;;;;;;64.40;29.30;;;;;;;0.70;99.95;98040.64;272369;1270;22788;-90
2024/02/26 04:55:13;;;;;;;65.40;28.50;;;;;;;0.67;100.00;98040.30;272254;1270;22414;-90
2024/02/26 05:01:16;;;;;;;68.50;29.70;;;;;;;0.53;100.00;98039.67;272501;1270;22689;-90
2024/02/26 05:07:20;;;;;;;57.40;27.90;;;;;;;0.47;100.00;98044.16;272534;1271;22216;-88
2024/02/26 05:13:29;;;;;;;68.80;29.80;;;;;;;0.49;100.00;98047.52;272376;1264;22210;-91
2024/02/26 05:19:35;;;;;;;59.90;27.90;;;;;;;0.47;100.00;98049.45;272312;1271;23521;-89
2024/02/26 05:25:47;;;;;;;63.10;30.40;;;;;;;0.41;100.00;98050.64;272434;1270;22542;-89
2024/02/26 05:31:49;;;;;;;61.00;28.00;;;;;;;0.35;100.00;98050.24;272227;1270;22606;-90
2024/02/26 05:37:51;;;;;;;61.70;28.70;;;;;;;0.33;100.00;98059.33;272535;1268;22224;-89
2024/02/26 05:43:54;;;;;;;60.20;27.60;;;;;;;0.25;100.00;98059.14;272481;1268;22586;-89
2024/02/26 05:49:58;;;;;;;62.90;30.00;;;;;;;0.21;100.00;98069.11;271462;1270;22645;-92
2024/02/26 05:56:00;;;;;;;61.30;27.60;;;;;;;0.09;100.00;98073.45;269970;1271;22727;-90
2024/02/26 06:02:03;;;;;;;74.30;31.30;;;;;;;0.09;100.00;98071.08;270144;1270;22576;-90
2024/02/26 06:08:06;;;;;;;64.00;32.00;;;;;;;0.15;100.00;98067.30;271538;1270;22609;-91
2024/02/26 06:14:09;;;;;;;66.70;32.40;;;;;;;0.18;100.00;98059.43;270804;1271;23676;-91
2024/02/26 06:20:13;;;;;;;67.60;34.50;;;;;;;0.33;100.00;98058.03;271492;1270;22624;-91
2024/02/26 06:26:18;;;;;;;66.30;31.80;;;;;;;0.55;100.00;98064.58;271513;1271;23437;-90
2024/02/26 06:32:22;;;;;;;70.60;33.70;;;;;;;0.82;100.00;98080.77;271627;1271;22388;-89
2024/02/26 06:38:24;;;;;;;62.90;28.20;;;;;;;0.96;100.00;98097.95;272457;1271;22332;-92
2024/02/26 06:44:31;;;;;;;94.10;32.90;;;;;;;1.10;100.00;98097.05;272348;1271;22697;-91
2024/02/26 06:50:33;;;;;;;47.70;24.00;;;;;;;1.27;100.00;98104.25;272470;1271;22658;-90
2024/02/26 06:56:39;;;;;;;62.70;25.60;;;;;;;1.47;100.00;98105.30;271909;1270;22596;-90
2024/02/26 07:02:41;;;;;;;37.10;20.20;;;;;;;1.66;100.00;98102.18;269951;1271;22725;-91
2024/02/26 07:08:43;;;;;;;42.50;23.00;;;;;;;1.97;100.00;98097.91;270015;1265;23372;-90
2024/02/26 07:14:52;;;;;;;54.20;26.20;;;;;;;2.31;100.00;98095.89;270419;1271;22572;-91
2024/02/26 07:20:56;;;;;;;62.80;31.90;;;;;;;2.86;100.00;98093.11;272063;1271;22331;-90
2024/02/26 07:27:01;;;;;;;59.20;31.60;;;;;;;3.44;100.00;98101.48;272251;1271;22245;-90
2024/02/26 07:33:03;;;;;;;50.50;27.70;;;;;;;3.87;100.00;98097.40;272373;1271;22454;-89
2024/02/26 07:39:12;;;;;;;54.10;28.20;;;;;;;4.23;100.00;98101.08;272425;1271;22978;-89
2024/02/26 07:45:15;;;;;;;47.70;25.10;;;;;;;4.66;100.00;98085.09;272464;1271;22442;-90
2024/02/26 07:51:22;;;;;;;64.30;33.60;;;;;;;5.07;100.00;98103.83;272210;1259;23149;-89
2024/02/26 07:57:26;;;;;;;67.20;32.20;;;;;;;5.20;100.00;98094.39;272577;1271;22263;-91
2024/02/26 08:03:28;;;;;;;59.90;29.80;;;;;;;5.31;100.00;98105.98;271293;1270;22404;-90
2024/02/26 08:09:46;;;;;;;38.60;22.60;;;;;;;5.47;100.00;98101.53;272365;1271;22410;-91
2024/02/26 08:15:56;;;;;;;38.20;22.00;;;;;;;5.73;100.00;98106.84;272370;1270;23601;-90
2024/02/26 08:22:15;;;;;;;40.50;21.10;;;;;;;5.96;100.00;98105.60;271888;1271;23633;-92
2024/02/26 08:28:41;;;;;;;39.40;19.40;;;;;;;6.32;100.00;98098.35;271531;1271;23724;-91
2024/02/26 08:34:50;;;;;;;34.10;18.90;;;;;;;6.68;100.00;98097.71;272126;1271;23031;-91
2024/02/26 08:41:12;;;;;;;36.80;19.10;;;;;;;7.01;100.00;98092.19;272334;1271;22436;-90
2024/02/26 08:47:36;;;;;;;;;;;;;;;;;;;;;
2024/02/26 08:53:42;;;;;;;28.50;16.00;;;;;;;7.89;100.00;98087.60;272446;1271;22216;-90
2024/02/26 08:59:55;;;;;;;23.50;13.90;;;;;;;8.35;100.00;98078.87;272382;1271;22225;-91
2024/02/26 09:06:12;;;;;;;24.60;11.50;;;;;;;8.83;100.00;98072.31;270800;1271;23465;-92
2024/02/26 09:12:39;;;;;;;;;;;;;;;;;;;;;
2024/02/26 09:19:09;;;;;;;17.80;9.60;;;;;;;9.99;100.00;98073.28;271205;1270;22571;-93
2024/02/26 09:25:15;;;;;;;16.70;9.00;;;;;;;10.36;100.00;98080.42;271068;1264;22427;-91
2024/02/26 09:31:35;;;;;;;17.30;9.40;;;;;;;10.40;100.00;98080.11;271217;1271;22655;-91
2024/02/26 09:37:44;;;;;;;17.90;9.40;;;;;;;10.24;100.00;98081.16;270994;1270;24291;-90
2024/02/26 09:44:06;;;;;;;;;;;;;;;;;;;;;
2024/02/26 09:50:12;;;;;;;19.00;9.60;;;;;;;10.81;100.00;98077.05;270799;1271;22557;-92
2024/02/26 09:56:14;;;;;;;19.70;9.20;;;;;;;11.17;100.00;98077.65;270471;1271;22635;-91
2024/02/26 10:02:31;;;;;;;17.20;9.10;;;;;;;11.59;100.00;98069.70;270357;1259;22406;-91
2024/02/26 10:08:40;;;;;;;21.00;8.90;;;;;;;12.10;100.00;98063.23;270740;1271;22511;-93
2024/02/26 10:14:51;;;;;;;21.40;8.60;;;;;;;12.57;100.00;98061.71;271060;1270;22562;-93
2024/02/26 10:21:07;;;;;;;17.50;8.60;;;;;;;13.11;100.00;98058.92;271000;1271;22520;-92
2024/02/26 10:28:05;;;;;;;15.20;8.70;;;;;;;13.97;100.00;98055.75;270932;1270;24015;-93
2024/02/26 10:34:27;;;;;;;16.10;8.90;;;;;;;15.33;99.86;98056.12;270873;1270;22630;-92
2024/02/26 10:40:40;;;;;;;15.60;7.20;;;;;;;16.36;97.35;98052.04;270403;1271;23326;-92
2024/02/26 10:46:42;;;;;;;10.10;5.80;;;;;;;17.08;94.43;98043.83;271126;1271;22411;-91
2024/02/26 10:52:46;;;;;;;9.80;5.30;;;;;;;17.58;93.24;98038.19;270703;1271;22321;-93
2024/02/26 10:58:54;;;;;;;10.50;5.20;;;;;;;17.75;89.94;98039.96;271551;1271;22567;-92
2024/02/26 11:05:11;;;;;;;3.80;2.20;;;;;;;17.35;87.96;98039.36;270630;1270;22732;-91
2024/02/26 11:11:30;;;;;;;4.50;2.50;;;;;;;17.43;87.32;98033.13;270758;1271;22452;-94
2024/02/26 11:17:46;;;;;;;3.40;2.00;;;;;;;17.73;84.14;98029.00;270369;1271;23228;-92
2024/02/26 11:24:46;;;;;;;2.80;1.60;;;;;;;17.53;77.00;98031.01;271033;1270;22572;-91
2024/02/26 11:32:18;;;;;;;;;;;;;;;;;;;;;
2024/02/26 11:39:28;;;;;;;;;;;;;;;;;;;;;
2024/02/26 11:46:26;;;;;;;2.10;1.70;;;;;;;17.49;72.40;98023.63;271280;1271;23019;-93
2024/02/26 11:52:32;;;;;;;2.80;1.70;;;;;;;17.54;69.32;98016.97;270687;1271;22582;-91
2024/02/26 11:59:13;;;;;;;2.10;1.50;;;;;;;17.28;68.48;98018.17;271053;1271;22763;-92
2024/02/26 12:05:36;;;;;;;;;;;;;;;;;;;;;
2024/02/26 12:12:20;;;;;;;6.00;2.70;;;;;;;16.81;67.77;98016.05;271710;1271;22574;-92
2024/02/26 12:20:00;;;;;;;4.20;2.30;;;;;;;16.82;68.02;98004.88;269911;1271;22986;-93
2024/02/26 12:26:25;;;;;;;3.10;2.00;;;;;;;16.79;67.91;98009.70;270273;1271;22572;-93
2024/02/26 12:33:08;;;;;;;;;;;;;;;;;;;;;
2024/02/26 12:39:27;;;;;;;3.20;1.90;;;;;;;16.43;66.89;98009.77;270950;1270;22214;-92
2024/02/26 12:45:34;;;;;;;4.50;2.30;;;;;;;16.40;65.57;98007.73;271198;1271;22490;-91
2024/02/26 12:58:51;;;;;;;5.50;2.10;;;;;;;16.19;65.22;98014.68;270488;1271;23841;-91
2024/02/26 13:04:58;;;;;;;3.40;2.10;;;;;;;16.21;66.03;98009.05;268275;1271;2891463;-91
2024/02/26 13:11:11;;;;;;;4.40;3.00;;;;;;;16.17;64.92;98011.68;270278;1268;22373;-92
2024/02/26 13:17:43;;;;;;;2.60;2.30;;;;;;;16.03;65.11;98016.70;270887;1272;22258;-90
2024/02/26 13:24:01;;;;;;;4.60;2.80;;;;;;;15.93;65.26;98018.92;271656;1271;22576;-92
2024/02/26 13:30:36;;;;;;;;;;;;;;;;;;;;;
2024/02/26 13:37:31;;;;;;;;;;;;;;;;;;;;;
2024/02/26 13:44:11;;;;;;;9.10;2.90;;;;;;;15.67;65.56;98030.70;271488;1272;23435;-92
2024/02/26 13:50:35;;;;;;;5.00;2.60;;;;;;;15.58;65.83;98029.96;272370;1271;23265;-91
2024/02/26 13:56:54;;;;;;;3.10;2.20;;;;;;;15.57;66.07;98025.43;270907;1270;22560;-91
2024/02/26 14:03:22;;;;;;;13.70;5.40;;;;;;;15.47;66.83;98031.42;270147;1272;23527;-90
2024/02/26 14:26:51;;;;;;;;;;;;;;;;;;;;;
2024/02/26 14:34:37;;;;;;;17.80;7.40;;;;;;;15.25;70.85;98033.16;271682;1271;22984;-91
2024/02/26 14:41:53;;;;;;;25.70;7.80;;;;;;;15.14;71.38;98040.73;273234;1277;22378;-92
2024/02/26 14:49:14;;;;;;;16.20;7.50;;;;;;;14.98;72.21;98036.05;271985;1270;22560;-91
2024/02/26 14:55:18;;;;;;;14.10;6.40;;;;;;;14.82;73.00;98043.34;269594;1272;22543;-92
2024/02/26 15:17:27;;;;;;;18.80;8.20;;;;;;;14.35;74.91;98053.46;268904;1278;22728;-92
2024/02/26 15:24:52;;;;;;;;;;;;;;;;;;;;;
2024/02/26 15:32:42;;;;;;;;;;;;;;;;;;;;;
2024/02/26 15:39:33;;;;;;;28.20;11.60;;;;;;;13.92;76.89;98070.16;270345;1276;22444;-91
2024/02/26 15:46:10;;;;;;;21.70;10.20;;;;;;;13.77;77.58;98072.78;272028;1270;24027;-91
2024/02/26 15:52:54;;;;;;;30.70;12.10;;;;;;;13.66;78.40;98077.92;272388;1270;22462;-91
2024/02/26 16:00:03;;;;;;;;;;;;;;;;;;;;;
2024/02/26 16:08:10;;;;;;;;;;;;;;;;;;;;;
2024/02/26 16:15:07;;;;;;;;;;;;;;;;;;;;;
2024/02/26 16:22:40;;;;;;;45.60;19.50;;;;;;;12.62;80.79;98083.16;270069;1278;23275;-93
2024/02/26 16:29:28;;;;;;;;;;;;;;;;;;;;;
2024/02/26 16:36:56;;;;;;;;;;;;;;;;;;;;;
2024/02/26 16:44:37;;;;;;;;;;;;;;;;;;;;;
2024/02/26 16:52:18;;;;;;;;;;;;;;;;;;;;;
2024/02/26 17:06:33;;;;;;;;;;;;;;;;;;;;;
2024/02/26 17:21:18;;;;;;;34.30;19.10;;;;;;;11.31;83.65;98128.14;270408;1267;24210;-92
2024/02/26 17:35:50;;;;;;;;;;;;;;;;;;;;;
2024/02/26 17:42:53;;;;;;;32.00;20.60;;;;;;;10.86;84.79;98149.95;270542;1270;23496;-90
2024/02/26 17:49:17;;;;;;;;;;;;;;;;;;;;;
2024/02/26 18:12:58;;;;;;;;;;;;;;;;;;;;;
2024/02/26 18:19:44;;;;;;;;;;;;;;;;;;;;;
2024/02/26 18:41:51;;;;;;;45.90;28.00;;;;;;;8.23;91.26;98220.90;269672;1280;22605;-92
2024/02/26 18:48:47;;;;;;;;;;;;;;;;;;;;;
2024/02/26 19:11:27;;;;;;;;;;;;;;;;;;;;;
2024/02/26 19:18:11;;;;;;;;;;;;;;;;;;;;;
2024/02/26 19:49:21;;;;;;;81.40;44.60;;;;;;;8.17;97.93;98289.76;265081;1300;544983;-92
2024/02/26 19:55:39;;;;;;;76.20;42.50;;;;;;;8.22;98.36;98291.16;269698;1280;22567;-91
2024/02/26 20:01:45;;;;;;;86.70;48.30;;;;;;;8.21;98.16;98294.94;268261;1279;2000164;-90
2024/02/26 20:07:55;;;;;;;78.70;43.90;;;;;;;8.14;98.49;98296.75;270012;1278;22631;-91
2024/02/26 20:14:05;;;;;;;138.30;67.40;;;;;;;8.09;98.68;98304.55;269945;1275;24249;-92
2024/02/26 20:20:17;;;;;;;78.80;43.90;;;;;;;8.08;99.32;98307.66;270017;1278;22585;-91
2024/02/26 20:26:23;;;;;;;88.80;46.40;;;;;;;8.10;99.62;98315.95;269716;1279;25347;-92
2024/02/26 20:32:33;;;;;;;103.40;51.10;;;;;;;8.11;99.88;98316.05;269454;1277;22631;-91
2024/02/26 20:38:40;;;;;;;83.40;45.50;;;;;;;8.09;98.86;98328.80;269445;1278;23267;-91
2024/02/26 20:44:47;;;;;;;100.80;49.40;;;;;;;8.05;99.73;98329.75;270422;1269;22762;-92
2024/02/26 20:50:58;;;;;;;97.40;48.00;;;;;;;7.98;100.00;98331.55;270470;1271;22547;-91
2024/02/26 20:57:04;;;;;;;92.00;45.10;;;;;;;7.90;100.00;98341.90;270769;1272;22590;-91
2024/02/26 21:03:26;;;;;;;;;;;;;;;7.84;99.97;98344.78;270606;1272;22521;-92
2024/02/26 21:09:32;;;;;;;76.50;44.10;;;;;;;7.79;100.00;98356.34;270492;1272;22750;-92
2024/02/26 21:15:42;;;;;;;80.50;42.60;;;;;;;7.74;100.00;98363.83;270764;1272;22655;-91
2024/02/26 21:22:04;;;;;;;85.20;46.70;;;;;;;7.71;100.00;98373.84;271354;1266;24248;-92
2024/02/26 21:28:10;;;;;;;79.00;42.30;;;;;;;7.66;100.00;98378.52;271593;1267;22598;-91
2024/02/26 21:34:20;;;;;;;74.80;42.20;;;;;;;7.52;100.00;98380.42;273458;1267;22311;-92
2024/02/26 21:40:24;;;;;;;89.40;47.20;;;;;;;7.38;100.00;98388.18;273521;1268;23675;-92
2024/02/26 21:46:27;;;;;;;77.80;47.00;;;;;;;7.31;100.00;98393.98;273422;1266;22237;-92
2024/02/26 21:52:31;;;;;;;74.60;44.50;;;;;;;7.24;100.00;98392.41;273432;1250;22935;-91
2024/02/26 21:58:41;;;;;;;81.80;46.10;;;;;;;7.17;100.00;98388.18;273476;1266;22986;-92
2024/02/26 22:04:45;;;;;;;78.50;46.30;;;;;;;7.09;100.00;98381.14;273504;1267;22419;-91
2024/02/26 22:11:08;;;;;;;78.40;44.50;;;;;;;6.97;100.00;98388.96;273393;1264;24012;-91
2024/02/26 22:17:20;;;;;;;68.10;41.90;;;;;;;6.86;100.00;98394.93;273405;1266;25224;-91
2024/02/26 22:23:31;;;;;;;69.50;41.00;;;;;;;6.67;100.00;98401.14;273418;1265;22272;-92
2024/02/26 22:29:35;;;;;;;84.20;48.60;;;;;;;6.41;100.00;98397.98;273311;1267;22450;-91
2024/02/26 22:35:40;;;;;;;91.00;51.90;;;;;;;6.22;100.00;98400.73;273498;1266;22308;-91
2024/02/26 22:41:47;;;;;;;87.70;47.60;;;;;;;6.07;100.00;98404.19;273505;1266;22405;-92
2024/02/26 22:47:50;;;;;;;90.60;51.20;;;;;;;5.98;100.00;98407.65;273445;1267;22214;-91
2024/02/26 22:53:54;;;;;;;94.70;51.40;;;;;;;5.82;100.00;98413.75;271178;1264;22545;-91
2024/02/26 23:00:24;;;;;;;86.30;45.60;;;;;;;5.66;100.00;98417.06;273300;1267;22408;-91
2024/02/26 23:06:45;;;;;;;80.20;44.10;;;;;;;5.55;100.00;98427.77;273256;1267;22874;-91
2024/02/26 23:12:49;;;;;;;87.20;47.00;;;;;;;5.40;100.00;98447.59;273444;1266;22669;-91
2024/02/26 23:18:55;;;;;;;81.30;44.60;;;;;;;5.39;100.00;98447.41;273419;1265;22299;-91
2024/02/26 23:24:59;;;;;;;95.60;50.20;;;;;;;5.37;100.00;98450.00;273417;1267;22418;-91
2024/02/26 23:31:06;;;;;;;86.80;47.90;;;;;;;5.37;100.00;98448.13;273317;1267;23656;-91
2024/02/26 23:37:10;;;;;;;89.00;49.10;;;;;;;5.35;100.00;98451.28;273150;1266;22470;-91
2024/02/26 23:43:32;;;;;;;87.70;49.80;;;;;;;5.21;100.00;98459.08;273235;1266;22504;-92
2024/02/26 23:49:36;;;;;;;87.40;48.20;;;;;;;5.00;100.00;98460.90;273494;1266;22248;-92
2024/02/26 23:55:47;;;;;;;87.20;46.60;;;;;;;4.88;100.00;98456.66;273336;1266;22453;-91
